createdAt,value
2018-09-03T00:00:42.016Z,15.16
2018-09-03T00:03:10.386Z,15.11
2018-09-03T00:05:38.700Z,14.97
2018-09-03T00:08:07.173Z,14.94
2018-09-03T00:10:35.486Z,14.98
2018-09-03T00:13:03.797Z,14.98
2018-09-03T00:15:32.123Z,15.09
2018-09-03T00:18:00.451Z,15.03
2018-09-03T00:20:28.925Z,15.00
2018-09-03T00:22:57.276Z,15.10
2018-09-03T00:25:25.586Z,15.07
2018-09-03T00:27:53.929Z,15.05
2018-09-03T00:30:22.278Z,15.08
2018-09-03T00:32:55.715Z,15.04
2018-09-03T00:35:29.324Z,15.04
2018-09-03T00:39:00.619Z,15.00
2018-09-03T00:41:34.206Z,15.02
2018-09-03T00:44:07.851Z,15.12
2018-09-03T00:46:41.455Z,15.05
2018-09-03T00:49:09.774Z,15.04
2018-09-03T00:51:38.093Z,15.10
2018-09-03T00:54:06.442Z,15.09
2018-09-03T00:56:34.749Z,15.17
2018-09-03T00:59:03.066Z,15.10
2018-09-03T01:01:31.365Z,15.02
2018-09-03T01:03:59.679Z,15.08
2018-09-03T01:06:27.990Z,15.08
2018-09-03T01:08:56.318Z,15.01
2018-09-03T01:11:25.593Z,15.02
2018-09-03T01:13:54.781Z,15.00
2018-09-03T01:16:23.143Z,15.01
2018-09-03T01:18:54.892Z,15.04
2018-09-03T01:21:23.678Z,15.02
2018-09-03T01:23:52.319Z,15.09
2018-09-03T01:26:20.678Z,15.12
2018-09-03T01:28:48.973Z,15.12
2018-09-03T01:31:20.378Z,15.10
2018-09-03T01:33:53.143Z,15.16
2018-09-03T01:36:21.830Z,15.15
2018-09-03T01:38:50.165Z,15.17
2018-09-03T01:41:19.203Z,15.16
2018-09-03T01:43:48.010Z,15.15
2018-09-03T01:46:16.594Z,15.20
2018-09-03T01:48:44.999Z,15.15
2018-09-03T01:51:13.355Z,15.20
2018-09-03T01:53:41.654Z,15.20
2018-09-03T01:56:09.963Z,15.23
2018-09-03T01:58:38.283Z,15.19
2018-09-03T02:01:06.837Z,15.11
2018-09-03T02:03:35.469Z,15.13
2018-09-03T02:06:03.955Z,15.15
2018-09-03T02:08:32.500Z,15.18
2018-09-03T02:11:00.938Z,15.13
2018-09-03T02:13:30.413Z,15.15
2018-09-03T02:15:58.910Z,15.15
2018-09-03T02:18:27.509Z,15.09
2018-09-03T02:20:56.224Z,15.02
2018-09-03T02:23:24.785Z,15.07
2018-09-03T02:25:53.424Z,14.98
2018-09-03T02:28:21.944Z,14.93
2018-09-03T02:30:50.381Z,15.01
2018-09-03T02:33:18.759Z,15.12
2018-09-03T02:35:47.210Z,15.01
2018-09-03T02:38:15.567Z,14.96
2018-09-03T02:40:43.960Z,14.95
2018-09-03T02:43:12.321Z,15.02
2018-09-03T02:45:40.726Z,15.16
2018-09-03T02:48:09.135Z,15.02
2018-09-03T02:50:37.676Z,15.15
2018-09-03T02:53:06.106Z,15.11
2018-09-03T02:55:34.499Z,15.11
2018-09-03T02:58:02.850Z,15.07
2018-09-03T03:00:31.243Z,15.11
2018-09-03T03:02:59.741Z,15.19
2018-09-03T03:05:29.144Z,15.10
2018-09-03T03:07:57.902Z,15.09
2018-09-03T03:10:26.397Z,15.09
2018-09-03T03:12:54.724Z,15.12
2018-09-03T03:15:23.140Z,15.18
2018-09-03T03:17:51.515Z,15.17
2018-09-03T03:20:19.928Z,15.21
2018-09-03T03:22:48.349Z,15.21
2018-09-03T03:25:16.743Z,15.22
2018-09-03T03:27:45.115Z,15.19
2018-09-03T03:30:13.517Z,15.19
2018-09-03T03:32:41.943Z,15.19
2018-09-03T03:35:11.684Z,15.20
2018-09-03T03:37:44.191Z,15.14
2018-09-03T03:40:12.665Z,15.16
2018-09-03T03:42:41.024Z,15.15
2018-09-03T03:45:09.518Z,15.17
2018-09-03T03:47:37.975Z,15.11
2018-09-03T03:50:06.488Z,15.11
2018-09-03T03:52:34.862Z,15.21
2018-09-03T03:55:03.643Z,15.09
2018-09-03T03:57:32.014Z,15.00
2018-09-03T04:00:00.495Z,15.03
2018-09-03T04:02:28.969Z,14.99
2018-09-03T04:04:57.369Z,14.96
2018-09-03T04:07:25.819Z,14.94
2018-09-03T04:09:54.219Z,14.99
2018-09-03T04:12:22.595Z,15.05
2018-09-03T04:14:51.005Z,15.08
2018-09-03T04:17:19.402Z,15.07
2018-09-03T04:19:51.806Z,15.09
2018-09-03T04:22:20.172Z,15.04
2018-09-03T04:24:48.523Z,14.95
2018-09-03T04:27:16.941Z,15.05
2018-09-03T04:29:45.318Z,15.01
2018-09-03T04:32:13.749Z,14.99
2018-09-03T04:34:42.130Z,14.96
2018-09-03T04:37:10.522Z,14.93
2018-09-03T04:39:38.912Z,14.92
2018-09-03T04:42:07.313Z,14.94
2018-09-03T04:44:35.672Z,14.88
2018-09-03T04:47:04.132Z,14.87
2018-09-03T04:49:32.504Z,14.89
2018-09-03T04:52:00.937Z,14.92
2018-09-03T04:54:29.434Z,14.93
2018-09-03T04:56:57.825Z,14.99
2018-09-03T04:59:26.205Z,15.00
2018-09-03T05:01:54.593Z,15.01
2018-09-03T05:04:22.968Z,15.03
2018-09-03T05:06:51.447Z,15.07
2018-09-03T05:09:19.947Z,15.05
2018-09-03T05:11:48.637Z,15.12
2018-09-03T05:14:17.136Z,15.05
2018-09-03T05:16:45.556Z,15.11
2018-09-03T05:19:13.988Z,15.17
2018-09-03T05:21:42.540Z,15.19
2018-09-03T05:24:10.977Z,15.25
2018-09-03T05:26:39.421Z,15.15
2018-09-03T05:29:07.971Z,15.20
2018-09-03T05:31:36.366Z,15.23
2018-09-03T05:34:04.808Z,15.26
2018-09-03T05:36:33.227Z,15.17
2018-09-03T05:39:01.653Z,15.27
2018-09-03T05:41:30.105Z,15.25
2018-09-03T05:43:58.524Z,15.26
2018-09-03T05:46:27.042Z,15.26
2018-09-03T05:48:55.428Z,15.29
2018-09-03T05:51:23.944Z,15.31
2018-09-03T05:53:52.391Z,15.35
2018-09-03T05:56:20.808Z,15.29
2018-09-03T05:58:49.258Z,15.33
2018-09-03T06:01:17.726Z,15.31
2018-09-03T06:03:46.145Z,15.42
2018-09-03T06:06:14.638Z,15.53
2018-09-03T06:08:43.088Z,15.57
2018-09-03T06:11:11.709Z,15.80
2018-09-03T06:13:41.427Z,15.79
2018-09-03T06:16:09.909Z,15.85
2018-09-03T06:18:38.615Z,15.97
2018-09-03T06:21:07.521Z,16.00
2018-09-03T06:23:36.025Z,16.10
2018-09-03T06:26:04.501Z,16.16
2018-09-03T06:28:32.934Z,16.30
2018-09-03T06:31:01.413Z,16.07
2018-09-03T06:33:29.813Z,16.06
2018-09-03T06:35:58.432Z,16.21
2018-09-03T06:38:27.089Z,16.30
2018-09-03T06:40:55.723Z,16.36
2018-09-03T06:43:24.588Z,16.43
2018-09-03T06:45:53.240Z,16.65
2018-09-03T06:48:21.913Z,16.66
2018-09-03T06:50:50.359Z,16.63
2018-09-03T06:53:19.013Z,16.74
2018-09-03T06:55:47.405Z,16.90
2018-09-03T06:58:15.827Z,16.91
2018-09-03T07:00:44.251Z,16.80
2018-09-03T07:03:12.701Z,17.04
2018-09-03T07:05:41.222Z,17.12
2018-09-03T07:08:09.628Z,17.22
2018-09-03T07:10:38.044Z,17.17
2018-09-03T07:13:07.554Z,17.27
2018-09-03T07:15:36.860Z,17.33
2018-09-03T07:18:05.677Z,17.35
2018-09-03T07:20:34.406Z,17.41
2018-09-03T07:23:03.098Z,17.47
2018-09-03T07:25:31.553Z,17.05
2018-09-03T07:28:00.058Z,17.05
2018-09-03T07:30:28.587Z,17.14
2018-09-03T07:32:57.025Z,17.17
2018-09-03T07:35:25.441Z,17.28
2018-09-03T07:37:53.863Z,17.17
2018-09-03T07:40:22.325Z,17.17
2018-09-03T07:42:50.760Z,17.39
2018-09-03T07:45:19.198Z,17.13
2018-09-03T07:47:47.591Z,17.07
2018-09-03T07:50:16.012Z,17.06
2018-09-03T07:52:44.444Z,16.97
2018-09-03T07:55:12.820Z,17.11
2018-09-03T07:57:41.211Z,17.33
2018-09-03T08:00:09.999Z,17.16
2018-09-03T08:02:38.412Z,17.43
2018-09-03T08:05:07.221Z,17.52
2018-09-03T08:07:35.689Z,17.55
2018-09-03T08:10:04.148Z,17.79
2018-09-03T08:12:32.573Z,17.72
2018-09-03T08:15:00.967Z,17.76
2018-09-03T08:17:29.348Z,17.92
2018-09-03T08:19:57.760Z,18.07
2018-09-03T08:22:26.190Z,17.80
2018-09-03T08:24:54.581Z,17.76
2018-09-03T08:27:23.086Z,17.80
2018-09-03T08:29:51.530Z,17.72
2018-09-03T08:32:19.979Z,17.91
2018-09-03T08:34:48.412Z,17.91
2018-09-03T08:37:16.862Z,18.01
2018-09-03T08:39:45.991Z,18.09
2018-09-03T08:42:14.370Z,18.13
2018-09-03T08:44:42.797Z,18.09
2018-09-03T08:47:11.170Z,18.18
2018-09-03T08:49:39.559Z,18.22
2018-09-03T08:52:08.084Z,18.11
2018-09-03T08:54:36.557Z,18.26
2018-09-03T08:57:04.956Z,18.14
2018-09-03T08:59:33.364Z,17.79
2018-09-03T09:02:01.721Z,18.03
2018-09-03T09:04:30.207Z,18.00
2018-09-03T09:06:59.765Z,18.07
2018-09-03T09:09:28.165Z,17.95
2018-09-03T09:11:56.572Z,17.93
2018-09-03T09:14:24.963Z,17.82
2018-09-03T09:16:53.357Z,17.75
2018-09-03T09:19:21.798Z,17.69
2018-09-03T09:21:50.317Z,17.75
2018-09-03T09:24:18.703Z,17.74
2018-09-03T09:26:47.070Z,17.69
2018-09-03T09:29:15.525Z,17.61
2018-09-03T09:31:46.358Z,17.60
2018-09-03T09:34:14.791Z,17.63
2018-09-03T09:36:47.781Z,17.51
2018-09-03T09:39:16.276Z,17.40
2018-09-03T09:47:22.889Z,17.40
2018-09-03T09:49:51.626Z,17.49
2018-09-03T09:52:20.108Z,17.54
2018-09-03T09:54:48.693Z,17.53
2018-09-03T09:57:17.593Z,17.61
2018-09-03T09:59:46.091Z,17.57
2018-09-03T10:02:17.197Z,17.63
2018-09-03T10:04:45.717Z,17.70
2018-09-03T10:07:14.217Z,17.51
2018-09-03T10:09:42.735Z,17.54
2018-09-03T10:12:11.183Z,17.91
2018-09-03T10:14:42.850Z,17.76
2018-09-03T10:17:11.455Z,17.61
2018-09-03T10:19:41.721Z,17.60
2018-09-03T10:22:09.981Z,17.76
2018-09-03T10:24:38.595Z,17.63
2018-09-03T10:27:07.034Z,17.85
2018-09-03T10:32:20.252Z,17.79
2018-09-03T10:34:51.217Z,17.77
2018-09-03T10:37:21.988Z,17.76
2018-09-03T10:39:58.014Z,17.74
2018-09-03T10:42:53.415Z,17.88
2018-09-03T10:45:24.202Z,17.93
2018-09-03T10:47:55.178Z,18.08
2018-09-03T10:53:15.200Z,18.13
2018-09-03T10:55:45.498Z,17.77
2018-09-03T10:58:16.169Z,18.02
2018-09-03T11:00:46.729Z,18.09
2018-09-03T11:03:27.365Z,18.18
2018-09-03T11:06:08.071Z,18.04
2018-09-03T11:08:47.630Z,18.01
2018-09-03T11:11:16.121Z,18.12
2018-09-03T11:13:44.502Z,17.97
2018-09-03T11:16:14.037Z,17.93
2018-09-03T11:18:42.412Z,18.03
2018-09-03T11:21:10.784Z,18.00
2018-09-03T11:23:42.437Z,18.10
2018-09-03T11:26:10.953Z,18.13
2018-09-03T11:28:39.541Z,18.19
2018-09-03T11:31:07.923Z,18.23
2018-09-03T11:33:36.328Z,18.38
2018-09-03T11:36:13.099Z,18.50
2018-09-03T11:38:41.641Z,18.55
2018-09-03T11:41:10.080Z,18.32
2018-09-03T11:43:38.497Z,18.33
2018-09-03T11:46:08.356Z,18.51
2018-09-03T11:48:37.160Z,18.83
2018-09-03T11:51:10.447Z,18.99
2018-09-03T11:53:38.854Z,19.00
2018-09-03T11:56:07.270Z,18.71
2018-09-03T11:58:35.623Z,18.71
2018-09-03T12:01:04.164Z,19.09
2018-09-03T12:06:09.012Z,19.24
2018-09-03T12:08:46.323Z,19.44
2018-09-03T12:11:15.075Z,19.39
2018-09-03T12:13:44.540Z,19.63
2018-09-03T12:16:17.275Z,19.58
2018-09-03T12:18:47.125Z,19.71
2018-09-03T12:21:18.439Z,19.59
2018-09-03T12:23:47.871Z,20.01
2018-09-03T12:26:34.754Z,20.09
2018-09-03T12:29:07.190Z,19.67
2018-09-03T12:31:36.618Z,19.53
2018-09-03T12:34:09.856Z,19.83
2018-09-03T12:36:39.094Z,19.96
2018-09-03T12:39:23.762Z,20.00
2018-09-03T12:41:52.680Z,19.90
2018-09-03T12:44:36.110Z,20.06
2018-09-03T12:47:07.926Z,20.22
2018-09-03T12:49:39.206Z,20.27
2018-09-03T12:52:11.238Z,20.34
2018-09-03T12:54:51.354Z,20.40
2018-09-03T12:57:25.908Z,20.53
2018-09-03T13:00:18.190Z,20.53
2018-09-03T13:03:01.140Z,20.12
2018-09-03T13:06:07.113Z,20.20
2018-09-03T13:08:47.922Z,20.55
2018-09-03T13:11:45.765Z,20.54
2018-09-03T13:14:17.329Z,20.72
2018-09-03T13:16:52.220Z,20.89
2018-09-03T13:22:27.294Z,21.08
2018-09-03T13:25:02.577Z,21.06
2018-09-03T13:30:24.514Z,20.73
2018-09-03T13:35:43.034Z,20.88
2018-09-03T13:38:14.755Z,20.76
2018-09-03T13:40:45.340Z,20.92
2018-09-03T13:43:19.855Z,20.55
2018-09-03T13:45:52.433Z,20.40
2018-09-03T13:48:46.666Z,20.50
2018-09-03T13:51:28.723Z,20.70
2018-09-03T15:34:44.193Z,21.08
2018-09-03T15:37:13.312Z,20.98
2018-09-03T15:39:41.603Z,21.10
2018-09-03T15:42:09.876Z,21.15
2018-09-03T15:44:38.214Z,21.05
2018-09-03T15:47:06.530Z,20.95
2018-09-03T15:49:34.947Z,21.12
2018-09-03T15:52:03.264Z,21.12
2018-09-03T15:54:31.700Z,21.28
2018-09-03T15:56:59.980Z,21.12
2018-09-03T15:59:28.269Z,21.09
2018-09-03T16:01:56.613Z,21.05
2018-09-03T16:04:25.763Z,21.04
2018-09-03T16:06:54.022Z,20.93
2018-09-03T16:09:22.267Z,20.88
2018-09-03T16:11:50.561Z,20.63
2018-09-03T16:14:18.913Z,20.57
2018-09-03T16:16:47.184Z,20.67
2018-09-03T16:19:15.453Z,20.47
2018-09-03T16:21:43.765Z,20.48
2018-09-03T16:24:12.033Z,20.72
2018-09-03T16:26:40.285Z,20.48
2018-09-03T16:29:08.579Z,20.40
2018-09-03T16:31:36.838Z,20.31
2018-09-03T16:34:05.073Z,20.37
2018-09-03T16:36:33.356Z,20.29
2018-09-03T16:39:01.677Z,20.34
2018-09-03T16:41:30.408Z,20.18
2018-09-03T16:43:58.700Z,20.25
2018-09-03T16:46:27.109Z,20.22
2018-09-03T16:48:55.622Z,20.24
2018-09-03T16:51:25.344Z,20.06
2018-09-03T16:53:53.664Z,20.04
2018-09-03T16:56:32.261Z,20.05
2018-09-03T16:59:00.705Z,19.96
2018-09-03T17:01:29.188Z,19.94
2018-09-03T17:03:57.384Z,19.99
2018-09-03T17:06:25.681Z,19.90
2018-09-03T17:08:54.146Z,19.92
2018-09-03T17:11:22.405Z,19.83
2018-09-03T17:13:50.732Z,19.74
2018-09-03T17:16:19.043Z,19.68
2018-09-03T17:18:47.417Z,19.67
2018-09-03T17:21:15.701Z,19.59
2018-09-03T17:23:44.157Z,19.64
2018-09-03T17:26:12.522Z,19.67
2018-09-03T17:28:40.898Z,19.69
2018-09-03T17:31:09.164Z,19.59
2018-09-03T17:33:37.526Z,19.53
2018-09-03T17:36:06.065Z,19.44
2018-09-03T17:38:34.668Z,19.44
2018-09-03T17:41:03.039Z,19.44
2018-09-03T17:43:31.602Z,19.45
2018-09-03T17:45:59.920Z,19.34
2018-09-03T17:48:28.266Z,19.25
2018-09-03T17:50:56.732Z,19.22
2018-09-03T17:53:25.228Z,19.18
2018-09-03T17:55:54.200Z,19.22
2018-09-03T17:58:22.508Z,19.16
2018-09-03T18:00:50.865Z,19.16
2018-09-03T18:03:19.241Z,19.14
2018-09-03T18:05:47.793Z,19.05
2018-09-03T18:08:16.106Z,19.10
2018-09-03T18:10:46.617Z,19.19
2018-09-03T18:13:15.169Z,18.93
2018-09-03T18:15:43.553Z,18.77
2018-09-03T18:18:12.653Z,18.75
2018-09-03T18:20:40.984Z,18.76
2018-09-03T18:23:09.294Z,18.69
2018-09-03T18:25:39.233Z,18.71
2018-09-03T18:28:07.693Z,18.58
2018-09-03T18:30:36.016Z,18.56
2018-09-03T18:33:04.412Z,18.55
2018-09-03T18:35:32.942Z,18.49
2018-09-03T18:38:01.568Z,18.41
2018-09-03T18:40:29.813Z,18.45
2018-09-03T18:42:58.153Z,18.43
2018-09-03T18:45:26.393Z,18.37
2018-09-03T18:47:54.866Z,18.28
2018-09-03T18:50:23.145Z,18.34
2018-09-03T18:52:51.527Z,18.30
2018-09-03T18:55:19.862Z,18.33
2018-09-03T18:57:48.602Z,18.28
2018-09-03T19:00:16.952Z,18.17
2018-09-03T19:02:45.695Z,18.11
2018-09-03T19:05:13.958Z,18.12
2018-09-03T19:07:42.342Z,18.03
2018-09-03T19:10:10.644Z,18.00
2018-09-03T19:12:39.211Z,17.96
2018-09-03T19:15:07.891Z,17.98
2018-09-03T19:17:36.284Z,17.99
2018-09-03T19:20:04.638Z,18.00
2018-09-03T19:22:32.936Z,17.95
2018-09-03T19:25:01.357Z,17.95
2018-09-03T19:27:30.078Z,17.91
2018-09-03T19:29:58.529Z,17.90
2018-09-03T19:32:27.019Z,17.86
2018-09-03T19:34:55.347Z,17.83
2018-09-03T19:37:23.762Z,17.78
2018-09-03T19:39:52.059Z,17.68
2018-09-03T19:42:20.716Z,17.65
2018-09-03T19:44:49.029Z,17.64
2018-09-03T19:47:17.418Z,17.55
2018-09-03T19:49:45.663Z,17.47
2018-09-03T19:52:14.267Z,17.33
2018-09-03T19:54:42.721Z,17.19
2018-09-03T19:57:11.398Z,17.20
2018-09-03T19:59:41.078Z,17.25
2018-09-03T20:02:09.480Z,17.23
2018-09-03T20:04:37.801Z,17.21
2018-09-03T20:07:06.393Z,17.14
2018-09-03T20:09:35.198Z,17.20
2018-09-03T20:12:03.474Z,17.22
2018-09-03T20:14:31.805Z,17.20
2018-09-03T20:17:00.122Z,17.18
2018-09-03T20:19:28.466Z,17.21
2018-09-03T20:21:57.132Z,17.17
2018-09-03T20:24:25.500Z,17.05
2018-09-03T20:26:53.759Z,17.14
2018-09-03T20:29:22.066Z,17.19
2018-09-03T20:31:53.172Z,17.22
2018-09-03T20:34:21.456Z,17.22
2018-09-03T20:36:49.796Z,17.18
2018-09-03T20:39:18.424Z,17.23
2018-09-03T20:41:46.744Z,17.28
2018-09-03T20:44:16.289Z,17.20
2018-09-03T20:46:44.657Z,17.34
2018-09-03T20:49:13.397Z,17.33
2018-09-03T20:51:41.836Z,17.24
2018-09-03T20:54:10.094Z,17.22
2018-09-03T20:56:38.363Z,17.26
2018-09-03T20:59:06.633Z,17.32
2018-09-03T21:01:34.973Z,17.38
2018-09-03T21:04:03.215Z,17.38
2018-09-03T21:06:31.520Z,17.45
2018-09-03T21:08:59.801Z,17.39
2018-09-03T21:11:28.228Z,17.45
2018-09-03T21:13:56.484Z,17.37
2018-09-03T21:16:24.805Z,17.37
2018-09-03T21:18:53.171Z,17.38
2018-09-03T21:21:21.481Z,17.36
2018-09-03T21:23:49.715Z,17.44
2018-09-03T21:26:18.022Z,17.42
2018-09-03T21:28:46.290Z,17.45
2018-09-03T21:31:14.565Z,17.35
2018-09-03T21:33:42.858Z,17.35
2018-09-03T21:36:11.122Z,17.30
2018-09-03T21:38:39.415Z,17.30
2018-09-03T21:41:07.753Z,17.34
2018-09-03T21:43:36.022Z,17.29
2018-09-03T21:46:04.338Z,17.22
2018-09-03T21:48:32.609Z,17.21
2018-09-03T21:51:00.886Z,17.22
2018-09-03T21:53:29.237Z,17.21
2018-09-03T21:55:57.492Z,17.17
2018-09-03T21:58:25.789Z,17.13
2018-09-03T22:00:54.012Z,17.13
2018-09-03T22:03:22.357Z,17.08
2018-09-03T22:05:50.681Z,17.07
2018-09-03T22:08:18.942Z,17.07
2018-09-03T22:10:47.198Z,17.01
2018-09-03T22:13:15.554Z,17.09
2018-09-03T22:15:43.816Z,17.14
2018-09-03T22:18:12.486Z,17.08
2018-09-03T22:20:40.889Z,17.10
2018-09-03T22:23:09.409Z,17.12
2018-09-03T22:25:37.923Z,17.08
2018-09-03T22:28:06.425Z,17.09
2018-09-03T22:30:34.792Z,17.02
2018-09-03T22:33:03.093Z,16.97
2018-09-03T22:35:31.419Z,16.98
2018-09-03T22:37:59.821Z,16.95
2018-09-03T22:40:28.146Z,16.98
2018-09-03T22:42:56.512Z,16.92
2018-09-03T22:45:24.819Z,16.94
2018-09-03T22:47:53.174Z,16.86
2018-09-03T22:50:21.511Z,16.91
2018-09-03T22:52:49.831Z,16.95
2018-09-03T22:55:18.138Z,16.95
2018-09-03T22:57:46.471Z,16.93
2018-09-03T23:00:14.798Z,16.90
2018-09-03T23:02:43.693Z,16.92
2018-09-03T23:05:12.643Z,16.82
2018-09-03T23:07:41.012Z,16.70
2018-09-03T23:10:09.985Z,16.72
2018-09-03T23:12:38.327Z,16.77
2018-09-03T23:15:07.400Z,16.81
2018-09-03T23:17:35.744Z,16.77
2018-09-03T23:20:04.095Z,16.77
2018-09-03T23:22:32.426Z,16.70
2018-09-03T23:25:00.743Z,16.78
2018-09-03T23:27:29.090Z,16.75
2018-09-03T23:29:57.780Z,16.78
2018-09-03T23:32:26.126Z,16.83
2018-09-03T23:34:54.476Z,16.79
2018-09-03T23:37:22.827Z,16.83
2018-09-03T23:39:51.231Z,16.81
2018-09-03T23:42:19.872Z,16.86
2018-09-03T23:44:48.226Z,16.77
2018-09-03T23:47:16.652Z,16.77
2018-09-03T23:49:45.109Z,16.79
2018-09-03T23:52:13.405Z,16.73
2018-09-03T23:54:41.818Z,16.79
2018-09-03T23:57:10.327Z,16.76
2018-09-03T23:59:38.708Z,16.83
